sensor_id;sensor_type;location;lat;lon;timestamp;pressure;altitude;pressure_sealevel;temperature;humidity
14253;BME280;7210;51.502;10.722;2022-12-18T00:01:29;101073.78;;;-9.22;100.00
14253;BME280;7210;51.502;10.722;2022-12-18T00:04:00;101097.16;;;-9.11;100.00
14253;BME280;7210;51.502;10.722;2022-12-18T00:06:29;101104.91;;;-9.12;100.00
14253;BME280;7210;51.502;10.722;2022-12-18T00:08:58;101105.06;;;-9.15;100.00
14253;BME280;7210;51.502;10.722;2022-12-18T00:11:29;101102.59;;;-9.18;100.00
14253;BME280;7210;51.502;10.722;2022-12-18T00:13:59;101106.72;;;-9.14;100.00
14253;BME280;7210;51.502;10.722;2022-12-18T00:16:29;101105.59;;;-9.09;100.00
14253;BME280;7210;51.502;10.722;2022-12-18T00:19:00;101099.66;;;-9.09;100.00
14253;BME280;7210;51.502;10.722;2022-12-18T00:21:28;101108.41;;;-9.15;100.00
14253;BME280;7210;51.502;10.722;2022-12-18T00:23:57;101103.66;;;-9.22;100.00
14253;BME280;7210;51.502;10.722;2022-12-18T00:26:27;101077.81;;;-9.36;100.00
14253;BME280;7210;51.502;10.722;2022-12-18T00:29:02;101105.25;;;-9.20;100.00
14253;BME280;7210;51.502;10.722;2022-12-18T00:31:30;101107.59;;;-9.15;100.00
14253;BME280;7210;51.502;10.722;2022-12-18T00:33:59;101114.31;;;-9.13;100.00
14253;BME280;7210;51.502;10.722;2022-12-18T00:36:29;101123.31;;;-9.04;100.00
14253;BME280;7210;51.502;10.722;2022-12-18T00:39:04;101117.66;;;-9.11;100.00
14253;BME280;7210;51.502;10.722;2022-12-18T00:41:32;101114.53;;;-9.17;100.00
14253;BME280;7210;51.502;10.722;2022-12-18T00:44:19;101117.19;;;-9.20;100.00
14253;BME280;7210;51.502;10.722;2022-12-18T00:46:47;101141.44;;;-9.09;100.00
14253;BME280;7210;51.502;10.722;2022-12-18T00:49:16;101142.19;;;-9.07;100.00
14253;BME280;7210;51.502;10.722;2022-12-18T00:51:44;101148.94;;;-9.04;100.00
14253;BME280;7210;51.502;10.722;2022-12-18T00:54:12;101132.94;;;-9.09;100.00
14253;BME280;7210;51.502;10.722;2022-12-18T00:56:40;101137.94;;;-9.06;100.00
14253;BME280;7210;51.502;10.722;2022-12-18T00:59:07;101144.09;;;-9.10;100.00
14253;BME280;7210;51.502;10.722;2022-12-18T01:01:36;101157.50;;;-9.05;100.00
14253;BME280;7210;51.502;10.722;2022-12-18T01:04:04;101156.59;;;-9.04;100.00
14253;BME280;7210;51.502;10.722;2022-12-18T01:06:31;101148.94;;;-9.04;100.00
14253;BME280;7210;51.502;10.722;2022-12-18T01:08:59;101142.16;;;-9.05;100.00
14253;BME280;7210;51.502;10.722;2022-12-18T01:11:26;101146.50;;;-9.07;100.00
14253;BME280;7210;51.502;10.722;2022-12-18T01:13:55;101150.88;;;-9.09;100.00
14253;BME280;7210;51.502;10.722;2022-12-18T01:16:23;101159.38;;;-9.09;100.00
14253;BME280;7210;51.502;10.722;2022-12-18T01:18:53;101176.34;;;-9.06;100.00
14253;BME280;7210;51.502;10.722;2022-12-18T01:21:22;101168.00;;;-9.11;100.00
14253;BME280;7210;51.502;10.722;2022-12-18T01:23:52;101165.78;;;-9.19;100.00
14253;BME280;7210;51.502;10.722;2022-12-18T01:26:20;101171.59;;;-9.15;100.00
14253;BME280;7210;51.502;10.722;2022-12-18T01:28:48;101176.84;;;-9.18;100.00
14253;BME280;7210;51.502;10.722;2022-12-18T01:31:19;101169.94;;;-9.16;100.00
14253;BME280;7210;51.502;10.722;2022-12-18T01:33:47;101180.09;;;-9.15;100.00
14253;BME280;7210;51.502;10.722;2022-12-18T01:36:18;101172.25;;;-9.10;100.00
14253;BME280;7210;51.502;10.722;2022-12-18T01:38:46;101173.91;;;-9.09;100.00
14253;BME280;7210;51.502;10.722;2022-12-18T01:41:24;101177.22;;;-9.07;100.00
14253;BME280;7210;51.502;10.722;2022-12-18T01:43:55;101174.16;;;-9.15;100.00
14253;BME280;7210;51.502;10.722;2022-12-18T01:46:24;101169.34;;;-9.23;100.00
14253;BME280;7210;51.502;10.722;2022-12-18T01:48:59;101157.03;;;-9.33;100.00
14253;BME280;7210;51.502;10.722;2022-12-18T01:51:30;101152.06;;;-9.38;100.00
14253;BME280;7210;51.502;10.722;2022-12-18T01:53:59;101154.78;;;-9.41;100.00
14253;BME280;7210;51.502;10.722;2022-12-18T01:56:26;101170.81;;;-9.37;100.00
14253;BME280;7210;51.502;10.722;2022-12-18T01:58:59;101168.28;;;-9.37;100.00
14253;BME280;7210;51.502;10.722;2022-12-18T02:01:30;101170.13;;;-9.41;100.00
14253;BME280;7210;51.502;10.722;2022-12-18T02:04:20;101167.00;;;-9.47;100.00
14253;BME280;7210;51.502;10.722;2022-12-18T02:06:56;101164.69;;;-9.53;100.00
14253;BME280;7210;51.502;10.722;2022-12-18T02:09:31;101170.03;;;-9.59;100.00
14253;BME280;7210;51.502;10.722;2022-12-18T02:12:13;101163.25;;;-9.60;100.00
14253;BME280;7210;51.502;10.722;2022-12-18T02:14:49;101156.53;;;-9.63;100.00
14253;BME280;7210;51.502;10.722;2022-12-18T02:17:24;101154.06;;;-9.64;100.00
14253;BME280;7210;51.502;10.722;2022-12-18T02:20:10;101158.91;;;-9.58;100.00
14253;BME280;7210;51.502;10.722;2022-12-18T02:23:03;101155.53;;;-9.59;100.00
14253;BME280;7210;51.502;10.722;2022-12-18T02:26:04;101159.94;;;-9.62;100.00
14253;BME280;7210;51.502;10.722;2022-12-18T02:28:39;101155.78;;;-9.65;100.00
14253;BME280;7210;51.502;10.722;2022-12-18T02:31:14;101151.38;;;-9.61;100.00
14253;BME280;7210;51.502;10.722;2022-12-18T02:33:44;101156.47;;;-9.61;100.00
14253;BME280;7210;51.502;10.722;2022-12-18T02:36:15;101151.59;;;-9.67;100.00
14253;BME280;7210;51.502;10.722;2022-12-18T02:38:51;101150.97;;;-9.72;100.00
14253;BME280;7210;51.502;10.722;2022-12-18T02:41:22;101145.22;;;-9.77;100.00
14253;BME280;7210;51.502;10.722;2022-12-18T02:43:56;101142.69;;;-9.79;100.00
14253;BME280;7210;51.502;10.722;2022-12-18T02:46:30;101148.75;;;-9.81;100.00
14253;BME280;7210;51.502;10.722;2022-12-18T02:49:15;101151.22;;;-9.78;100.00
14253;BME280;7210;51.502;10.722;2022-12-18T02:51:53;101144.69;;;-9.85;100.00
14253;BME280;7210;51.502;10.722;2022-12-18T02:54:46;101132.66;;;-10.03;100.00
14253;BME280;7210;51.502;10.722;2022-12-18T02:57:26;101143.53;;;-10.00;100.00
14253;BME280;7210;51.502;10.722;2022-12-18T03:00:03;101146.88;;;-9.98;100.00
14253;BME280;7210;51.502;10.722;2022-12-18T03:02:38;101135.81;;;-9.98;100.00
14253;BME280;7210;51.502;10.722;2022-12-18T03:05:14;101140.84;;;-9.95;100.00
14253;BME280;7210;51.502;10.722;2022-12-18T03:07:52;101149.13;;;-9.90;100.00
14253;BME280;7210;51.502;10.722;2022-12-18T03:10:26;101153.47;;;-9.92;100.00
14253;BME280;7210;51.502;10.722;2022-12-18T03:13:04;101149.38;;;-9.96;100.00
14253;BME280;7210;51.502;10.722;2022-12-18T03:15:37;101144.53;;;-10.02;100.00
14253;BME280;7210;51.502;10.722;2022-12-18T03:18:16;101143.84;;;-10.06;100.00
14253;BME280;7210;51.502;10.722;2022-12-18T03:20:47;101149.19;;;-10.12;100.00
14253;BME280;7210;51.502;10.722;2022-12-18T03:23:24;101153.97;;;-10.04;100.00
14253;BME280;7210;51.502;10.722;2022-12-18T03:25:59;101155.66;;;-10.03;100.00
14253;BME280;7210;51.502;10.722;2022-12-18T03:28:33;101158.31;;;-10.06;100.00
14253;BME280;7210;51.502;10.722;2022-12-18T03:31:08;101148.22;;;-10.09;100.00
14253;BME280;7210;51.502;10.722;2022-12-18T03:33:42;101149.13;;;-10.10;100.00
14253;BME280;7210;51.502;10.722;2022-12-18T03:36:14;101141.03;;;-10.21;100.00
14253;BME280;7210;51.502;10.722;2022-12-18T03:38:42;101147.75;;;-10.19;100.00
14253;BME280;7210;51.502;10.722;2022-12-18T03:41:19;101140.97;;;-10.20;100.00
14253;BME280;7210;51.502;10.722;2022-12-18T03:44:29;101157.56;;;-10.08;100.00
14253;BME280;7210;51.502;10.722;2022-12-18T03:47:06;101161.44;;;-10.00;100.00
14253;BME280;7210;51.502;10.722;2022-12-18T03:49:39;101160.63;;;-10.00;100.00
14253;BME280;7210;51.502;10.722;2022-12-18T03:52:19;101154.75;;;-10.02;100.00
14253;BME280;7210;51.502;10.722;2022-12-18T03:54:49;101139.78;;;-10.11;100.00
14253;BME280;7210;51.502;10.722;2022-12-18T03:57:22;101129.91;;;-10.20;100.00
14253;BME280;7210;51.502;10.722;2022-12-18T03:59:58;101119.28;;;-10.31;100.00
14253;BME280;7210;51.502;10.722;2022-12-18T04:02:44;101118.38;;;-10.30;100.00
14253;BME280;7210;51.502;10.722;2022-12-18T04:05:20;101118.38;;;-10.30;100.00
14253;BME280;7210;51.502;10.722;2022-12-18T04:07:49;101121.47;;;-10.22;100.00
14253;BME280;7210;51.502;10.722;2022-12-18T04:10:18;101122.78;;;-10.12;100.00
14253;BME280;7210;51.502;10.722;2022-12-18T04:12:46;101134.75;;;-10.13;100.00
14253;BME280;7210;51.502;10.722;2022-12-18T04:15:16;101138.00;;;-10.09;100.00
14253;BME280;7210;51.502;10.722;2022-12-18T04:17:48;101123.66;;;-10.13;100.00
14253;BME280;7210;51.502;10.722;2022-12-18T04:20:19;101128.16;;;-10.18;100.00
14253;BME280;7210;51.502;10.722;2022-12-18T04:22:47;101138.25;;;-10.15;100.00
14253;BME280;7210;51.502;10.722;2022-12-18T04:25:15;101137.28;;;-10.13;100.00
14253;BME280;7210;51.502;10.722;2022-12-18T04:27:54;101128.72;;;-10.12;100.00
14253;BME280;7210;51.502;10.722;2022-12-18T04:30:24;101134.66;;;-10.11;100.00
14253;BME280;7210;51.502;10.722;2022-12-18T04:32:51;101154.63;;;-9.99;100.00
14253;BME280;7210;51.502;10.722;2022-12-18T04:35:20;101160.13;;;-9.88;100.00
14253;BME280;7210;51.502;10.722;2022-12-18T04:37:47;101151.50;;;-9.86;100.00
14253;BME280;7210;51.502;10.722;2022-12-18T04:40:15;101137.47;;;-9.97;100.00
14253;BME280;7210;51.502;10.722;2022-12-18T04:42:46;101139.91;;;-10.14;100.00
14253;BME280;7210;51.502;10.722;2022-12-18T04:45:13;101120.91;;;-10.29;100.00
14253;BME280;7210;51.502;10.722;2022-12-18T04:47:42;101125.16;;;-10.29;100.00
14253;BME280;7210;51.502;10.722;2022-12-18T04:50:13;101118.63;;;-10.36;100.00
14253;BME280;7210;51.502;10.722;2022-12-18T04:52:40;101107.31;;;-10.52;100.00
14253;BME280;7210;51.502;10.722;2022-12-18T04:55:08;101119.69;;;-10.42;100.00
14253;BME280;7210;51.502;10.722;2022-12-18T04:57:35;101117.31;;;-10.46;100.00
14253;BME280;7210;51.502;10.722;2022-12-18T05:00:04;101116.63;;;-10.51;100.00
14253;BME280;7210;51.502;10.722;2022-12-18T05:02:32;101112.56;;;-10.55;100.00
14253;BME280;7210;51.502;10.722;2022-12-18T05:05:00;101104.34;;;-10.63;100.00
14253;BME280;7210;51.502;10.722;2022-12-18T05:07:28;101113.66;;;-10.62;100.00
14253;BME280;7210;51.502;10.722;2022-12-18T05:09:56;101112.66;;;-10.58;100.00
14253;BME280;7210;51.502;10.722;2022-12-18T05:12:23;101108.72;;;-10.66;100.00
14253;BME280;7210;51.502;10.722;2022-12-18T05:14:51;101133.63;;;-10.50;100.00
14253;BME280;7210;51.502;10.722;2022-12-18T05:17:18;101137.41;;;-10.37;100.00
14253;BME280;7210;51.502;10.722;2022-12-18T05:19:46;101149.63;;;-10.24;100.00
14253;BME280;7210;51.502;10.722;2022-12-18T05:22:14;101153.56;;;-10.15;100.00
14253;BME280;7210;51.502;10.722;2022-12-18T05:24:41;101158.50;;;-10.11;100.00
14253;BME280;7210;51.502;10.722;2022-12-18T05:27:09;101154.28;;;-10.12;100.00
14253;BME280;7210;51.502;10.722;2022-12-18T05:29:36;101139.41;;;-10.24;100.00
14253;BME280;7210;51.502;10.722;2022-12-18T05:32:04;101136.44;;;-10.35;100.00
14253;BME280;7210;51.502;10.722;2022-12-18T05:34:31;101123.94;;;-10.42;100.00
14253;BME280;7210;51.502;10.722;2022-12-18T05:36:59;101127.41;;;-10.43;100.00
14253;BME280;7210;51.502;10.722;2022-12-18T05:39:28;101136.66;;;-10.41;100.00
14253;BME280;7210;51.502;10.722;2022-12-18T05:41:55;101139.13;;;-10.38;100.00
14253;BME280;7210;51.502;10.722;2022-12-18T05:44:22;101134.16;;;-10.42;100.00
14253;BME280;7210;51.502;10.722;2022-12-18T05:46:55;101124.25;;;-10.49;100.00
14253;BME280;7210;51.502;10.722;2022-12-18T05:49:22;101124.22;;;-10.48;100.00
14253;BME280;7210;51.502;10.722;2022-12-18T05:51:49;101128.28;;;-10.44;100.00
14253;BME280;7210;51.502;10.722;2022-12-18T05:54:17;101134.78;;;-10.36;100.00
14253;BME280;7210;51.502;10.722;2022-12-18T05:56:45;101143.22;;;-10.34;100.00
14253;BME280;7210;51.502;10.722;2022-12-18T05:59:13;101148.91;;;-10.27;100.00
14253;BME280;7210;51.502;10.722;2022-12-18T06:01:40;101154.91;;;-10.28;100.00
14253;BME280;7210;51.502;10.722;2022-12-18T06:04:09;101150.72;;;-10.29;100.00
14253;BME280;7210;51.502;10.722;2022-12-18T06:06:36;101163.13;;;-10.20;100.00
14253;BME280;7210;51.502;10.722;2022-12-18T06:09:04;101166.66;;;-10.23;100.00
14253;BME280;7210;51.502;10.722;2022-12-18T06:11:36;101174.25;;;-10.21;100.00
14253;BME280;7210;51.502;10.722;2022-12-18T06:14:06;101185.78;;;-10.11;100.00
14253;BME280;7210;51.502;10.722;2022-12-18T06:16:33;101179.00;;;-10.12;100.00
14253;BME280;7210;51.502;10.722;2022-12-18T06:19:04;101161.66;;;-10.26;100.00
14253;BME280;7210;51.502;10.722;2022-12-18T06:21:32;101155.88;;;-10.31;100.00
14253;BME280;7210;51.502;10.722;2022-12-18T06:24:00;101142.91;;;-10.48;100.00
14253;BME280;7210;51.502;10.722;2022-12-18T06:26:27;101121.22;;;-10.82;100.00
14253;BME280;7210;51.502;10.722;2022-12-18T06:28:55;101126.22;;;-10.79;100.00
14253;BME280;7210;51.502;10.722;2022-12-18T06:31:24;101123.84;;;-10.83;100.00
14253;BME280;7210;51.502;10.722;2022-12-18T06:33:51;101140.53;;;-10.75;100.00
14253;BME280;7210;51.502;10.722;2022-12-18T06:36:19;101151.38;;;-10.68;100.00
14253;BME280;7210;51.502;10.722;2022-12-18T06:38:46;101163.84;;;-10.61;100.00
14253;BME280;7210;51.502;10.722;2022-12-18T06:41:17;101149.38;;;-10.60;100.00
14253;BME280;7210;51.502;10.722;2022-12-18T06:43:45;101119.75;;;-10.89;100.00
14253;BME280;7210;51.502;10.722;2022-12-18T06:46:13;101142.09;;;-10.71;100.00
14253;BME280;7210;51.502;10.722;2022-12-18T06:48:41;101146.09;;;-10.64;100.00
14253;BME280;7210;51.502;10.722;2022-12-18T06:51:10;101150.09;;;-10.57;100.00
14253;BME280;7210;51.502;10.722;2022-12-18T06:53:37;101144.72;;;-10.51;100.00
14253;BME280;7210;51.502;10.722;2022-12-18T06:56:07;101155.31;;;-10.39;100.00
14253;BME280;7210;51.502;10.722;2022-12-18T06:58:34;101155.22;;;-10.36;100.00
14253;BME280;7210;51.502;10.722;2022-12-18T07:01:03;101163.38;;;-10.26;100.00
14253;BME280;7210;51.502;10.722;2022-12-18T07:03:31;101165.81;;;-10.23;100.00
14253;BME280;7210;51.502;10.722;2022-12-18T07:06:00;101171.06;;;-10.26;100.00
14253;BME280;7210;51.502;10.722;2022-12-18T07:08:28;101176.03;;;-10.23;100.00
14253;BME280;7210;51.502;10.722;2022-12-18T07:10:56;101170.03;;;-10.22;100.00
14253;BME280;7210;51.502;10.722;2022-12-18T07:13:23;101165.69;;;-10.20;100.00
14253;BME280;7210;51.502;10.722;2022-12-18T07:15:51;101153.31;;;-10.31;100.00
14253;BME280;7210;51.502;10.722;2022-12-18T07:18:18;101150.28;;;-10.40;100.00
14253;BME280;7210;51.502;10.722;2022-12-18T07:20:45;101159.63;;;-10.39;100.00
14253;BME280;7210;51.502;10.722;2022-12-18T07:23:14;101153.28;;;-10.52;100.00
14253;BME280;7210;51.502;10.722;2022-12-18T07:25:41;101150.31;;;-10.63;100.00
14253;BME280;7210;51.502;10.722;2022-12-18T07:28:09;101145.63;;;-10.75;100.00
14253;BME280;7210;51.502;10.722;2022-12-18T07:30:37;101148.53;;;-10.84;100.00
14253;BME280;7210;51.502;10.722;2022-12-18T07:33:19;101162.13;;;-10.83;100.00
14253;BME280;7210;51.502;10.722;2022-12-18T07:35:47;101152.53;;;-10.77;100.00
14253;BME280;7210;51.502;10.722;2022-12-18T07:38:16;101166.06;;;-10.75;100.00
14253;BME280;7210;51.502;10.722;2022-12-18T07:40:44;101185.94;;;-10.60;100.00
14253;BME280;7210;51.502;10.722;2022-12-18T07:43:11;101175.94;;;-10.66;100.00
14253;BME280;7210;51.502;10.722;2022-12-18T07:45:39;101175.13;;;-10.66;100.00
14253;BME280;7210;51.502;10.722;2022-12-18T07:48:07;101183.75;;;-10.70;100.00
14253;BME280;7210;51.502;10.722;2022-12-18T07:50:34;101195.50;;;-10.65;100.00
14253;BME280;7210;51.502;10.722;2022-12-18T07:53:02;101209.94;;;-10.64;100.00
14253;BME280;7210;51.502;10.722;2022-12-18T07:55:33;101192.31;;;-10.71;100.00
14253;BME280;7210;51.502;10.722;2022-12-18T07:58:05;101231.69;;;-10.54;100.00
14253;BME280;7210;51.502;10.722;2022-12-18T08:00:33;101225.88;;;-10.57;100.00
14253;BME280;7210;51.502;10.722;2022-12-18T08:03:01;101243.03;;;-10.38;100.00
14253;BME280;7210;51.502;10.722;2022-12-18T08:05:28;101248.88;;;-10.35;100.00
14253;BME280;7210;51.502;10.722;2022-12-18T08:07:55;101241.03;;;-10.30;100.00
14253;BME280;7210;51.502;10.722;2022-12-18T08:10:25;101231.75;;;-10.33;100.00
14253;BME280;7210;51.502;10.722;2022-12-18T08:12:54;101239.25;;;-10.28;100.00
14253;BME280;7210;51.502;10.722;2022-12-18T08:15:22;101241.03;;;-10.30;100.00
14253;BME280;7210;51.502;10.722;2022-12-18T08:17:49;101237.72;;;-10.32;100.00
14253;BME280;7210;51.502;10.722;2022-12-18T08:20:16;101240.69;;;-10.21;100.00
14253;BME280;7210;51.502;10.722;2022-12-18T08:22:44;101228.69;;;-10.19;100.00
14253;BME280;7210;51.502;10.722;2022-12-18T08:25:11;101238.50;;;-10.09;100.00
14253;BME280;7210;51.502;10.722;2022-12-18T08:27:38;101233.34;;;-10.07;100.00
14253;BME280;7210;51.502;10.722;2022-12-18T08:30:10;101231.31;;;-9.99;100.00
14253;BME280;7210;51.502;10.722;2022-12-18T08:32:37;101235.06;;;-9.86;100.00
14253;BME280;7210;51.502;10.722;2022-12-18T08:35:06;101230.84;;;-9.87;100.00
14253;BME280;7210;51.502;10.722;2022-12-18T08:37:34;101229.81;;;-9.83;100.00
14253;BME280;7210;51.502;10.722;2022-12-18T08:40:01;101217.81;;;-9.81;100.00
14253;BME280;7210;51.502;10.722;2022-12-18T08:42:29;101228.34;;;-9.67;100.00
14253;BME280;7210;51.502;10.722;2022-12-18T08:45:20;101224.66;;;-9.60;100.00
14253;BME280;7210;51.502;10.722;2022-12-18T08:47:48;101221.16;;;-9.58;100.00
14253;BME280;7210;51.502;10.722;2022-12-18T08:50:15;101227.59;;;-9.49;100.00
14253;BME280;7210;51.502;10.722;2022-12-18T08:52:42;101224.19;;;-9.48;100.00
14253;BME280;7210;51.502;10.722;2022-12-18T08:55:13;101225.47;;;-9.38;100.00
14253;BME280;7210;51.502;10.722;2022-12-18T08:57:40;101218.44;;;-9.33;100.00
14253;BME280;7210;51.502;10.722;2022-12-18T09:00:10;101198.94;;;-9.36;100.00
14253;BME280;7210;51.502;10.722;2022-12-18T09:02:42;101203.16;;;-9.35;100.00
14253;BME280;7210;51.502;10.722;2022-12-18T09:05:10;101187.28;;;-9.43;100.00
14253;BME280;7210;51.502;10.722;2022-12-18T09:07:38;101196.56;;;-9.40;100.00
14253;BME280;7210;51.502;10.722;2022-12-18T09:10:06;101204.75;;;-9.32;100.00
14253;BME280;7210;51.502;10.722;2022-12-18T09:12:34;101212.66;;;-9.18;100.00
14253;BME280;7210;51.502;10.722;2022-12-18T09:15:01;101206.16;;;-9.05;100.00
14253;BME280;7210;51.502;10.722;2022-12-18T09:17:28;101218.47;;;-8.93;100.00
14253;BME280;7210;51.502;10.722;2022-12-18T09:19:57;101218.81;;;-8.82;100.00
14253;BME280;7210;51.502;10.722;2022-12-18T09:22:24;101216.25;;;-8.82;100.00
14253;BME280;7210;51.502;10.722;2022-12-18T09:24:52;101233.59;;;-8.69;100.00
14253;BME280;7210;51.502;10.722;2022-12-18T09:27:19;101237.34;;;-8.57;100.00
14253;BME280;7210;51.502;10.722;2022-12-18T09:29:47;101234.75;;;-8.56;100.00
14253;BME280;7210;51.502;10.722;2022-12-18T09:32:14;101230.41;;;-8.35;100.00
14253;BME280;7210;51.502;10.722;2022-12-18T09:34:41;101211.31;;;-8.48;100.00
14253;BME280;7210;51.502;10.722;2022-12-18T09:37:14;101196.25;;;-8.54;100.00
14253;BME280;7210;51.502;10.722;2022-12-18T09:39:42;101204.28;;;-8.43;100.00
14253;BME280;7210;51.502;10.722;2022-12-18T09:42:20;101224.13;;;-8.11;100.00
14253;BME280;7210;51.502;10.722;2022-12-18T09:44:51;101218.78;;;-7.88;100.00
14253;BME280;7210;51.502;10.722;2022-12-18T09:47:27;101238.47;;;-7.70;100.00
14253;BME280;7210;51.502;10.722;2022-12-18T09:50:00;101224.34;;;-7.79;100.00
14253;BME280;7210;51.502;10.722;2022-12-18T09:52:35;101246.78;;;-7.65;100.00
14253;BME280;7210;51.502;10.722;2022-12-18T09:55:22;101236.78;;;-7.71;100.00
14253;BME280;7210;51.502;10.722;2022-12-18T09:57:57;101245.28;;;-7.69;100.00
14253;BME280;7210;51.502;10.722;2022-12-18T10:00:27;101249.22;;;-7.62;100.00
14253;BME280;7210;51.502;10.722;2022-12-18T10:03:02;101254.16;;;-7.41;100.00
14253;BME280;7210;51.502;10.722;2022-12-18T10:05:41;101243.00;;;-7.40;100.00
14253;BME280;7210;51.502;10.722;2022-12-18T10:08:23;101243.69;;;-7.36;100.00
14253;BME280;7210;51.502;10.722;2022-12-18T10:10:58;101219.25;;;-7.45;100.00
14253;BME280;7210;51.502;10.722;2022-12-18T10:13:33;101267.13;;;-6.75;100.00
14253;BME280;7210;51.502;10.722;2022-12-18T10:16:14;101253.38;;;-6.91;100.00
14253;BME280;7210;51.502;10.722;2022-12-18T10:19:18;101256.00;;;-6.92;100.00
14253;BME280;7210;51.502;10.722;2022-12-18T10:21:57;101258.81;;;-6.97;100.00
14253;BME280;7210;51.502;10.722;2022-12-18T10:24:36;101258.06;;;-6.99;100.00
14253;BME280;7210;51.502;10.722;2022-12-18T10:27:14;101253.50;;;-7.11;100.00
14253;BME280;7210;51.502;10.722;2022-12-18T10:29:43;101285.03;;;-6.90;100.00
14253;BME280;7210;51.502;10.722;2022-12-18T10:32:16;101279.19;;;-6.94;100.00
14253;BME280;7210;51.502;10.722;2022-12-18T10:34:48;101285.19;;;-6.93;100.00
14253;BME280;7210;51.502;10.722;2022-12-18T10:37:23;101273.53;;;-7.00;100.00
14253;BME280;7210;51.502;10.722;2022-12-18T10:40:10;101282.53;;;-6.92;100.00
14253;BME280;7210;51.502;10.722;2022-12-18T10:42:38;101289.81;;;-6.83;100.00
14253;BME280;7210;51.502;10.722;2022-12-18T10:45:11;101282.31;;;-6.70;100.00
14253;BME280;7210;51.502;10.722;2022-12-18T10:47:43;101276.03;;;-6.65;100.00
14253;BME280;7210;51.502;10.722;2022-12-18T10:50:25;101281.59;;;-6.57;100.00
14253;BME280;7210;51.502;10.722;2022-12-18T10:52:59;101268.75;;;-6.57;100.00
14253;BME280;7210;51.502;10.722;2022-12-18T10:55:34;101260.66;;;-6.49;100.00
14253;BME280;7210;51.502;10.722;2022-12-18T10:58:19;101265.69;;;-6.31;100.00
14253;BME280;7210;51.502;10.722;2022-12-18T11:01:05;101250.34;;;-6.32;100.00
14253;BME280;7210;51.502;10.722;2022-12-18T11:03:40;101233.91;;;-6.30;100.00
14253;BME280;7210;51.502;10.722;2022-12-18T11:06:11;101228.22;;;-6.19;100.00
14253;BME280;7210;51.502;10.722;2022-12-18T11:08:39;101221.59;;;-6.08;100.00
14253;BME280;7210;51.502;10.722;2022-12-18T11:11:20;101214.34;;;-6.01;100.00
14253;BME280;7210;51.502;10.722;2022-12-18T11:14:00;101209.59;;;-6.09;100.00
14253;BME280;7210;51.502;10.722;2022-12-18T11:16:34;101221.22;;;-6.02;100.00
14253;BME280;7210;51.502;10.722;2022-12-18T11:19:21;101204.56;;;-6.10;100.00
14253;BME280;7210;51.502;10.722;2022-12-18T11:21:54;101215.75;;;-5.96;100.00
14253;BME280;7210;51.502;10.722;2022-12-18T11:24:29;101211.94;;;-5.89;100.00
14253;BME280;7210;51.502;10.722;2022-12-18T11:27:04;101197.09;;;-5.84;100.00
14253;BME280;7210;51.502;10.722;2022-12-18T11:29:36;101181.66;;;-5.84;100.00
14253;BME280;7210;51.502;10.722;2022-12-18T11:32:27;101167.56;;;-5.78;100.00
14253;BME280;7210;51.502;10.722;2022-12-18T11:35:04;101164.28;;;-5.80;100.00
14253;BME280;7210;51.502;10.722;2022-12-18T11:37:40;101170.06;;;-5.77;100.00
14253;BME280;7210;51.502;10.722;2022-12-18T11:40:14;101178.19;;;-5.69;100.00
14253;BME280;7210;51.502;10.722;2022-12-18T11:42:54;101167.19;;;-5.57;100.00
14253;BME280;7210;51.502;10.722;2022-12-18T11:45:28;101147.44;;;-5.72;100.00
14253;BME280;7210;51.502;10.722;2022-12-18T11:48:05;101141.38;;;-5.85;100.00
14253;BME280;7210;51.502;10.722;2022-12-18T11:50:49;101144.84;;;-5.86;100.00
14253;BME280;7210;51.502;10.722;2022-12-18T11:53:18;101150.16;;;-5.89;100.00
14253;BME280;7210;51.502;10.722;2022-12-18T11:56:05;101149.34;;;-5.89;100.00
14253;BME280;7210;51.502;10.722;2022-12-18T11:58:51;101137.72;;;-5.81;100.00
14253;BME280;7210;51.502;10.722;2022-12-18T12:01:36;101124.84;;;-5.81;100.00
14253;BME280;7210;51.502;10.722;2022-12-18T12:04:35;101126.31;;;-5.77;100.00
14253;BME280;7210;51.502;10.722;2022-12-18T12:07:21;101130.44;;;-5.74;100.00
14253;BME280;7210;51.502;10.722;2022-12-18T12:10:02;101125.16;;;-5.87;100.00
14253;BME280;7210;51.502;10.722;2022-12-18T12:12:43;101120.34;;;-5.93;100.00
14253;BME280;7210;51.502;10.722;2022-12-18T12:15:34;101197.47;;;-4.87;100.00
14253;BME280;7210;51.502;10.722;2022-12-18T12:18:18;101141.19;;;-5.23;100.00
14253;BME280;7210;51.502;10.722;2022-12-18T12:20:56;101120.31;;;-5.48;100.00
14253;BME280;7210;51.502;10.722;2022-12-18T12:23:35;101114.13;;;-5.59;100.00
14253;BME280;7210;51.502;10.722;2022-12-18T12:26:11;101107.19;;;-5.73;100.00
14253;BME280;7210;51.502;10.722;2022-12-18T12:28:59;101087.75;;;-5.92;100.00
14253;BME280;7210;51.502;10.722;2022-12-18T12:31:59;101101.06;;;-6.00;100.00
14253;BME280;7210;51.502;10.722;2022-12-18T12:34:38;101098.97;;;-6.09;100.00
14253;BME280;7210;51.502;10.722;2022-12-18T12:37:26;101109.69;;;-6.16;100.00
14253;BME280;7210;51.502;10.722;2022-12-18T12:39:56;101112.66;;;-6.24;100.00
14253;BME280;7210;51.502;10.722;2022-12-18T12:42:32;101110.47;;;-6.30;100.00
14253;BME280;7210;51.502;10.722;2022-12-18T12:45:27;101114.28;;;-6.37;100.00
14253;BME280;7210;51.502;10.722;2022-12-18T12:48:01;101105.03;;;-6.41;100.00
14253;BME280;7210;51.502;10.722;2022-12-18T12:50:35;101118.50;;;-6.36;100.00
14253;BME280;7210;51.502;10.722;2022-12-18T12:53:07;101101.00;;;-6.45;100.00
14253;BME280;7210;51.502;10.722;2022-12-18T12:55:39;101095.00;;;-6.45;100.00
14253;BME280;7210;51.502;10.722;2022-12-18T12:58:16;101115.91;;;-6.36;100.00
14253;BME280;7210;51.502;10.722;2022-12-18T13:00:54;101119.16;;;-6.32;100.00
14253;BME280;7210;51.502;10.722;2022-12-18T13:03:36;101109.28;;;-6.24;100.00